Time;durP1;ratioP1;P1;durP2;ratioP2;P2;SDS_P1;SDS_P2;PMS_P1;PMS_P2;Temp;Humidity;BMP_temperature;BMP_pressure;BME280_temperature;BME280_humidity;BME280_pressure;Samples;Min_cycle;Max_cycle;Signal;HPM_P1;HPM_P2
2023/08/13 00:00:15;;;;;;;;;;;17.40;99.90;;;;;;7325722;19;9111;-82
2023/08/13 00:02:47;;;;;;;;;;;17.50;99.90;;;;;;7325892;19;9258;-82
2023/08/13 00:05:16;;;;;;;;;;;17.50;99.90;;;;;;7325909;19;9246;-81
2023/08/13 00:07:45;;;;;;;;;;;17.60;99.90;;;;;;7325571;19;9213;-82
2023/08/13 00:10:14;;;;;;;;;;;17.70;99.90;;;;;;7325775;19;10209;-81
2023/08/13 00:12:42;;;;;;;;;;;17.60;99.90;;;;;;7323864;19;9312;-81
2023/08/13 00:15:12;;;;;;;;;;;17.60;99.90;;;;;;7325545;19;9127;-82
2023/08/13 00:17:41;;;;;;;;;;;17.60;99.90;;;;;;7325476;19;9189;-82
2023/08/13 00:20:14;;;;;;;;;;;17.50;99.90;;;;;;7325590;19;9185;-81
2023/08/13 00:22:43;;;;;;;;;;;17.50;99.90;;;;;;7325403;19;9483;-81
2023/08/13 00:25:12;;;;;;;;;;;17.50;99.90;;;;;;7325688;19;9824;-81
2023/08/13 00:27:41;;;;;;;;;;;17.30;99.90;;;;;;7325045;19;9234;-82
2023/08/13 00:30:11;;;;;;;;;;;17.40;99.90;;;;;;7324806;19;9205;-81
2023/08/13 00:32:40;;;;;;;;;;;17.40;99.90;;;;;;7323578;19;9336;-81
2023/08/13 00:35:10;;;;;;;;;;;17.20;99.90;;;;;;7324634;19;9192;-81
2023/08/13 00:37:41;;;;;;;;;;;17.10;99.90;;;;;;7322470;19;9332;-82
2023/08/13 00:40:13;;;;;;;;;;;17.10;99.90;;;;;;7323694;19;9118;-81
2023/08/13 00:42:42;;;;;;;;;;;17.00;99.90;;;;;;7323329;19;9260;-81
2023/08/13 00:45:11;;;;;;;;;;;16.90;99.90;;;;;;7324373;19;9189;-81
2023/08/13 00:47:41;;;;;;;;;;;16.90;99.90;;;;;;7324937;19;9193;-81
2023/08/13 00:50:10;;;;;;;;;;;16.90;99.90;;;;;;7324193;19;9215;-81
2023/08/13 00:52:43;;;;;;;;;;;16.80;99.90;;;;;;7322978;19;9200;-82
2023/08/13 00:55:14;;;;;;;;;;;16.80;99.90;;;;;;7324130;19;10721;-81
2023/08/13 00:57:43;;;;;;;;;;;16.70;99.90;;;;;;7324339;19;9237;-81
2023/08/13 01:00:13;;;;;;;;;;;16.70;99.90;;;;;;7324202;19;9258;-81
2023/08/13 01:02:42;;;;;;;;;;;16.70;99.90;;;;;;7324037;19;9210;-82
2023/08/13 01:05:11;;;;;;;;;;;16.70;99.90;;;;;;7323906;19;10146;-82
2023/08/13 01:07:53;;;;;;;;;;;16.60;99.90;;;;;;7324266;19;9145;-82
2023/08/13 01:10:33;;;;;;;;;;;16.60;99.90;;;;;;7323943;19;9149;-81
2023/08/13 01:13:11;;;;;;;;;;;16.70;99.90;;;;;;7322623;19;9477;-82
2023/08/13 01:15:42;;;;;;;;;;;16.70;99.90;;;;;;7324105;19;9140;-82
2023/08/13 01:18:12;;;;;;;;;;;16.70;99.90;;;;;;7324093;19;9131;-82
2023/08/13 01:20:44;;;;;;;;;;;16.70;99.90;;;;;;7323963;19;9500;-81
2023/08/13 01:23:16;;;;;;;;;;;16.60;99.90;;;;;;7323803;19;9549;-81
2023/08/13 01:25:59;;;;;;;;;;;16.60;99.90;;;;;;7327729;19;9481;-82
2023/08/13 01:28:37;;;;;;;;;;;16.60;99.90;;;;;;7323918;19;9211;-82
2023/08/13 01:31:13;;;;;;;;;;;16.70;99.90;;;;;;7323548;19;10835;-81
2023/08/13 01:33:45;;;;;;;;;;;16.80;99.90;;;;;;7323481;19;9203;-82
2023/08/13 01:36:17;;;;;;;;;;;16.80;99.90;;;;;;7323173;19;10161;-82
2023/08/13 01:38:50;;;;;;;;;;;16.80;99.90;;;;;;7323233;19;9174;-81
2023/08/13 01:41:19;;;;;;;;;;;16.80;99.90;;;;;;7323172;19;10496;-81
2023/08/13 01:43:48;;;;;;;;;;;16.80;99.90;;;;;;7323607;19;9017;-82
2023/08/13 01:46:17;;;;;;;;;;;16.80;99.90;;;;;;7323161;19;9249;-81
2023/08/13 01:48:46;;;;;;;;;;;16.80;99.90;;;;;;7333266;19;9220;-82
2023/08/13 01:51:15;;;;;;;;;;;16.90;99.90;;;;;;7336729;19;9205;-82
2023/08/13 01:53:44;;;;;;;;;;;16.90;99.90;;;;;;7334706;19;9177;-82
2023/08/13 01:56:15;;;;;;;;;;;17.10;99.90;;;;;;7336591;19;9173;-81
2023/08/13 01:58:44;;;;;;;;;;;17.10;99.90;;;;;;7336662;19;9173;-82
2023/08/13 02:01:13;;;;;;;;;;;17.10;99.90;;;;;;7336064;19;9184;-81
2023/08/13 02:03:42;;;;;;;;;;;17.10;99.90;;;;;;7336634;19;9166;-82
2023/08/13 02:06:11;;;;;;;;;;;17.10;99.90;;;;;;7336326;19;9065;-82
2023/08/13 02:08:40;;;;;;;;;;;17.10;99.90;;;;;;7336269;19;8944;-81
2023/08/13 02:11:09;;;;;;;;;;;17.00;99.90;;;;;;7336222;19;9446;-82
2023/08/13 02:13:40;;;;;;;;;;;17.00;99.90;;;;;;7333932;19;11126;-81
2023/08/13 02:16:09;;;;;;;;;;;17.10;99.90;;;;;;7335963;19;9412;-81
2023/08/13 02:18:38;;;;;;;;;;;17.10;99.90;;;;;;7336130;19;9165;-81
2023/08/13 02:21:07;;;;;;;;;;;17.10;99.90;;;;;;7335848;19;9169;-81
2023/08/13 02:23:36;;;;;;;;;;;17.10;99.90;;;;;;7335722;19;9209;-82
2023/08/13 02:26:06;;;;;;;;;;;17.10;99.90;;;;;;7335780;19;9442;-81
2023/08/13 02:28:35;;;;;;;;;;;17.10;99.90;;;;;;7335566;19;9477;-81
2023/08/13 02:31:06;;;;;;;;;;;17.20;99.90;;;;;;7335683;19;9411;-81
2023/08/13 02:33:35;;;;;;;;;;;17.20;99.90;;;;;;7334027;19;9122;-81
2023/08/13 02:36:04;;;;;;;;;;;17.10;99.90;;;;;;7335561;19;9279;-81
2023/08/13 02:38:33;;;;;;;;;;;17.20;99.90;;;;;;7335205;19;9189;-81
2023/08/13 02:41:02;;;;;;;;;;;17.20;99.90;;;;;;7333367;19;9475;-81
2023/08/13 02:43:35;;;;;;;;;;;17.30;99.90;;;;;;7333080;19;9264;-81
2023/08/13 02:46:06;;;;;;;;;;;17.30;99.90;;;;;;7335084;19;9541;-82
2023/08/13 02:48:35;;;;;;;;;;;17.40;99.90;;;;;;7335199;19;9239;-81
2023/08/13 02:51:04;;;;;;;;;;;17.30;99.90;;;;;;7334794;19;10384;-82
2023/08/13 02:53:33;;;;;;;;;;;17.40;99.90;;;;;;7333264;19;9173;-82
2023/08/13 02:56:02;;;;;;;;;;;17.30;99.90;;;;;;7334868;19;9491;-81
2023/08/13 02:58:31;;;;;;;;;;;17.30;99.90;;;;;;7334576;19;9252;-81
2023/08/13 03:01:00;;;;;;;;;;;17.40;99.90;;;;;;7326883;19;9565;-81
2023/08/13 03:03:32;;;;;;;;;;;17.40;99.90;;;;;;7327744;19;9204;-82
2023/08/13 03:06:01;;;;;;;;;;;17.30;99.90;;;;;;7328074;19;9763;-81
2023/08/13 03:08:30;;;;;;;;;;;17.20;99.90;;;;;;7327695;19;9161;-81
2023/08/13 03:10:59;;;;;;;;;;;17.20;99.90;;;;;;7327749;19;10441;-81
2023/08/13 03:13:28;;;;;;;;;;;17.10;99.90;;;;;;7325641;19;9142;-82
2023/08/13 03:15:57;;;;;;;;;;;17.00;99.90;;;;;;7327408;19;9226;-81
2023/08/13 03:18:26;;;;;;;;;;;17.00;99.90;;;;;;7327525;19;9467;-81
2023/08/13 03:20:58;;;;;;;;;;;17.00;99.90;;;;;;7327350;19;9196;-81
2023/08/13 03:23:27;;;;;;;;;;;17.00;99.90;;;;;;7327212;19;9265;-81
2023/08/13 03:25:56;;;;;;;;;;;16.90;99.90;;;;;;7326787;19;9090;-81
2023/08/13 03:28:26;;;;;;;;;;;16.80;99.90;;;;;;7326969;19;10642;-82
2023/08/13 03:31:00;;;;;;;;;;;16.70;99.90;;;;;;7327056;19;9524;-81
2023/08/13 03:33:30;;;;;;;;;;;16.60;99.90;;;;;;7325551;19;9170;-82
2023/08/13 03:36:01;;;;;;;;;;;16.60;99.90;;;;;;7327066;19;9234;-81
2023/08/13 03:38:30;;;;;;;;;;;16.60;99.90;;;;;;7326927;19;9205;-81
2023/08/13 03:41:00;;;;;;;;;;;16.50;99.90;;;;;;7324486;19;9242;-81
2023/08/13 03:43:29;;;;;;;;;;;16.40;99.90;;;;;;7324074;19;9201;-81
2023/08/13 03:45:58;;;;;;;;;;;16.40;99.90;;;;;;7326452;19;9505;-82
2023/08/13 03:48:27;;;;;;;;;;;16.40;99.90;;;;;;7326208;19;9105;-81
2023/08/13 03:51:00;;;;;;;;;;;16.40;99.90;;;;;;7326498;19;9324;-81
2023/08/13 03:53:29;;;;;;;;;;;16.30;99.90;;;;;;7325832;19;9146;-82
2023/08/13 03:55:59;;;;;;;;;;;16.30;99.90;;;;;;7327751;19;9189;-82
2023/08/13 03:58:28;;;;;;;;;;;16.20;99.90;;;;;;7326903;19;9252;-82
2023/08/13 04:00:57;;;;;;;;;;;16.20;99.90;;;;;;7326249;19;9247;-82
2023/08/13 04:03:26;;;;;;;;;;;16.20;99.90;;;;;;7325915;19;9223;-82
2023/08/13 04:05:55;;;;;;;;;;;16.10;99.90;;;;;;7325764;19;9212;-82
2023/08/13 04:08:26;;;;;;;;;;;16.10;99.90;;;;;;7326063;19;9493;-82
2023/08/13 04:10:56;;;;;;;;;;;16.20;99.90;;;;;;7323163;19;9255;-82
2023/08/13 04:13:25;;;;;;;;;;;16.20;99.90;;;;;;7324545;19;9216;-81
2023/08/13 04:15:54;;;;;;;;;;;16.10;99.90;;;;;;7325546;19;9223;-82
2023/08/13 04:18:23;;;;;;;;;;;16.10;99.90;;;;;;7325516;19;9252;-82
2023/08/13 04:20:52;;;;;;;;;;;16.20;99.90;;;;;;7324963;19;9319;-82
2023/08/13 04:23:21;;;;;;;;;;;16.10;99.90;;;;;;7325225;19;9543;-82
2023/08/13 04:25:52;;;;;;;;;;;16.10;99.90;;;;;;7325345;19;10217;-82
2023/08/13 04:28:21;;;;;;;;;;;16.10;99.90;;;;;;7325227;19;9284;-82
2023/08/13 04:30:51;;;;;;;;;;;16.10;99.90;;;;;;7325018;19;9534;-82
2023/08/13 04:33:20;;;;;;;;;;;16.20;99.90;;;;;;7324222;19;9182;-82
2023/08/13 04:35:53;;;;;;;;;;;16.10;99.90;;;;;;7324806;19;9482;-82
2023/08/13 04:38:23;;;;;;;;;;;16.20;99.90;;;;;;7324899;19;10718;-82
2023/08/13 04:40:54;;;;;;;;;;;16.20;99.90;;;;;;7323356;19;9212;-82
2023/08/13 04:43:23;;;;;;;;;;;16.10;99.90;;;;;;7323070;19;9218;-82
2023/08/13 04:45:52;;;;;;;;;;;16.10;99.90;;;;;;7324561;19;10169;-82
2023/08/13 04:48:45;;;;;;;;;;;16.10;99.90;;;;;;7324327;19;9150;-82
2023/08/13 04:51:15;;;;;;;;;;;16.10;99.90;;;;;;7323227;19;9309;-82
2023/08/13 04:53:44;;;;;;;;;;;16.20;99.90;;;;;;7323359;19;10696;-81
2023/08/13 04:56:16;;;;;;;;;;;16.20;99.90;;;;;;7324320;19;9434;-82
2023/08/13 04:58:45;;;;;;;;;;;16.20;99.90;;;;;;7324251;19;9219;-82
2023/08/13 05:01:14;;;;;;;;;;;16.20;99.90;;;;;;7324165;19;9058;-82
2023/08/13 05:03:44;;;;;;;;;;;16.30;99.90;;;;;;7323957;19;9172;-82
2023/08/13 05:06:13;;;;;;;;;;;16.30;99.90;;;;;;7323990;19;9351;-82
2023/08/13 05:08:42;;;;;;;;;;;16.40;99.90;;;;;;7323788;19;9276;-82
2023/08/13 05:11:11;;;;;;;;;;;16.50;99.90;;;;;;7323787;19;10314;-82
2023/08/13 05:13:43;;;;;;;;;;;16.50;99.90;;;;;;7322941;19;9193;-82
2023/08/13 05:16:12;;;;;;;;;;;16.60;99.90;;;;;;7323713;19;9218;-82
2023/08/13 05:18:40;;;;;;;;;;;16.60;99.90;;;;;;7323591;19;9507;-82
2023/08/13 05:21:10;;;;;;;;;;;16.70;99.90;;;;;;7323275;19;10747;-82
2023/08/13 05:23:39;;;;;;;;;;;16.70;99.90;;;;;;7323247;19;9216;-82
2023/08/13 05:26:08;;;;;;;;;;;16.80;99.90;;;;;;7323393;19;9192;-82
2023/08/13 05:28:37;;;;;;;;;;;16.80;99.90;;;;;;7323336;19;9526;-82
2023/08/13 05:31:10;;;;;;;;;;;16.90;99.90;;;;;;7323133;19;9172;-82
2023/08/13 05:33:39;;;;;;;;;;;17.00;99.90;;;;;;7322444;19;9340;-82
2023/08/13 05:36:08;;;;;;;;;;;17.10;99.90;;;;;;7323242;19;9598;-82
2023/08/13 05:38:37;;;;;;;;;;;17.30;99.90;;;;;;7323222;19;9268;-82
2023/08/13 05:41:06;;;;;;;;;;;17.30;99.90;;;;;;7321280;19;9261;-82
2023/08/13 05:43:35;;;;;;;;;;;17.40;99.90;;;;;;7321207;19;9485;-82
2023/08/13 05:46:04;;;;;;;;;;;17.50;99.90;;;;;;7322795;19;9189;-82
2023/08/13 05:48:36;;;;;;;;;;;17.60;99.90;;;;;;7322875;19;9242;-82
2023/08/13 05:51:04;;;;;;;;;;;17.60;99.90;;;;;;7323101;19;9199;-82
2023/08/13 05:53:33;;;;;;;;;;;17.80;99.90;;;;;;7322003;19;9454;-82
2023/08/13 05:56:02;;;;;;;;;;;17.90;99.90;;;;;;7322770;19;9257;-82
2023/08/13 05:58:31;;;;;;;;;;;17.90;99.90;;;;;;7322494;19;9197;-81
2023/08/13 06:01:01;;;;;;;;;;;18.00;99.90;;;;;;7323020;19;9143;-82
2023/08/13 06:03:30;;;;;;;;;;;18.10;99.90;;;;;;7323090;19;9221;-82
2023/08/13 06:06:01;;;;;;;;;;;18.40;99.90;;;;;;7323508;19;9221;-82
2023/08/13 06:08:30;;;;;;;;;;;18.50;99.90;;;;;;7325014;19;9208;-82
2023/08/13 06:10:59;;;;;;;;;;;18.60;99.90;;;;;;7323952;19;9212;-82
2023/08/13 06:13:28;;;;;;;;;;;18.70;99.90;;;;;;7322270;19;9507;-82
2023/08/13 06:15:57;;;;;;;;;;;18.70;99.90;;;;;;7322512;19;9178;-82
2023/08/13 06:18:27;;;;;;;;;;;18.80;99.90;;;;;;7322423;19;9300;-82
2023/08/13 06:20:56;;;;;;;;;;;18.80;99.90;;;;;;7322142;19;9184;-82
2023/08/13 06:23:28;;;;;;;;;;;18.80;99.90;;;;;;7322487;19;9174;-82
2023/08/13 06:25:57;;;;;;;;;;;18.70;99.90;;;;;;7321951;19;10463;-82
2023/08/13 06:28:26;;;;;;;;;;;18.80;99.90;;;;;;7321915;19;9221;-82
2023/08/13 06:30:55;;;;;;;;;;;18.80;99.90;;;;;;7321708;19;9289;-82
2023/08/13 06:33:25;;;;;;;;;;;18.80;99.90;;;;;;7321193;19;9089;-82
2023/08/13 06:35:54;;;;;;;;;;;18.70;99.90;;;;;;7327049;19;9253;-82
2023/08/13 06:38:24;;;;;;;;;;;18.70;99.90;;;;;;7328795;19;9434;-81
2023/08/13 06:40:55;;;;;;;;;;;18.70;99.90;;;;;;7326326;19;9471;-82
2023/08/13 06:43:24;;;;;;;;;;;18.70;99.90;;;;;;7326147;19;9234;-82
2023/08/13 06:45:53;;;;;;;;;;;18.70;99.90;;;;;;7328808;19;9299;-81
2023/08/13 06:48:22;;;;;;;;;;;18.80;99.90;;;;;;7328607;19;9505;-82
2023/08/13 06:50:56;;;;;;;;;;;18.90;99.90;;;;;;7328280;19;9079;-82
2023/08/13 06:53:26;;;;;;;;;;;19.00;99.90;;;;;;7327965;19;9233;-82
2023/08/13 06:55:57;;;;;;;;;;;18.90;99.90;;;;;;7328354;19;9162;-83
2023/08/13 06:58:26;;;;;;;;;;;19.00;99.90;;;;;;7328409;19;9169;-82
2023/08/13 07:00:55;;;;;;;;;;;19.00;99.90;;;;;;7328141;19;9468;-82
2023/08/13 07:03:24;;;;;;;;;;;19.10;99.90;;;;;;7328055;19;9141;-82
2023/08/13 07:05:54;;;;;;;;;;;19.20;99.90;;;;;;7328024;19;9284;-82
2023/08/13 07:08:24;;;;;;;;;;;19.20;99.90;;;;;;7328079;19;9269;-83
2023/08/13 07:10:53;;;;;;;;;;;19.40;99.90;;;;;;7327706;19;9172;-83
2023/08/13 07:13:25;;;;;;;;;;;19.70;99.90;;;;;;7327509;19;9238;-84
2023/08/13 07:15:54;;;;;;;;;;;19.90;99.90;;;;;;7327723;19;9278;-81
2023/08/13 07:18:24;;;;;;;;;;;19.90;99.90;;;;;;7327487;19;9261;-81
2023/08/13 07:20:53;;;;;;;;;;;19.90;99.90;;;;;;7327406;19;9491;-82
2023/08/13 07:23:22;;;;;;;;;;;20.00;99.90;;;;;;7328329;19;10328;-81
2023/08/13 07:25:50;;;;;;;;;;;20.10;99.90;;;;;;7327397;19;9182;-82
2023/08/13 07:28:19;;;;;;;;;;;20.10;99.90;;;;;;7326879;19;9663;-81
2023/08/13 07:30:51;;;;;;;;;;;20.20;99.90;;;;;;7326986;19;9430;-82
2023/08/13 07:33:20;;;;;;;;;;;20.50;99.90;;;;;;7327218;19;9204;-82
2023/08/13 07:35:50;;;;;;;;;;;20.70;99.90;;;;;;7327078;19;9307;-82
2023/08/13 07:38:19;;;;;;;;;;;20.90;99.90;;;;;;7326784;19;10747;-82
2023/08/13 07:40:48;;;;;;;;;;;21.20;99.90;;;;;;7324680;19;9189;-82
2023/08/13 07:43:17;;;;;;;;;;;21.60;99.90;;;;;;7324647;19;10489;-81
2023/08/13 07:45:46;;;;;;;;;;;21.70;99.90;;;;;;7325978;19;9226;-82
2023/08/13 07:48:18;;;;;;;;;;;22.10;99.90;;;;;;7326247;19;9185;-81
2023/08/13 07:50:47;;;;;;;;;;;22.20;99.90;;;;;;7326435;19;9200;-81
2023/08/13 07:53:16;;;;;;;;;;;22.40;99.90;;;;;;7326393;19;9503;-82
2023/08/13 07:55:46;;;;;;;;;;;22.30;99.90;;;;;;7322415;19;10956;-82
2023/08/13 07:58:16;;;;;;;;;;;22.30;99.90;;;;;;7326273;19;9283;-82
2023/08/13 08:00:45;;;;;;;;;;;22.30;99.90;;;;;;7326002;19;9608;-81
2023/08/13 08:03:17;;;;;;;;;;;22.50;99.40;;;;;;7325887;19;9650;-84
2023/08/13 08:05:47;;;;;;;;;;;22.70;97.70;;;;;;7325996;19;9537;-82
2023/08/13 08:08:16;;;;;;;;;;;22.80;97.90;;;;;;7325861;19;9162;-82
2023/08/13 08:10:45;;;;;;;;;;;22.90;97.50;;;;;;7325912;19;9221;-82
2023/08/13 08:13:14;;;;;;;;;;;23.00;95.90;;;;;;7326164;19;9213;-82
2023/08/13 08:15:43;;;;;;;;;;;23.10;95.60;;;;;;7324342;19;9500;-81
2023/08/13 08:18:12;;;;;;;;;;;22.90;96.00;;;;;;7326907;19;9237;-82
2023/08/13 08:20:43;;;;;;;;;;;23.00;95.90;;;;;;7327143;19;9158;-82
2023/08/13 08:23:13;;;;;;;;;;;23.10;96.30;;;;;;7327867;19;9218;-82
2023/08/13 08:25:44;;;;;;;;;;;23.10;96.30;;;;;;7325788;19;8944;-83
2023/08/13 08:28:13;;;;;;;;;;;23.10;96.20;;;;;;7325213;19;9246;-82
2023/08/13 08:30:42;;;;;;;;;;;23.20;94.90;;;;;;7324992;19;9464;-84
2023/08/13 08:33:31;;;;;;;;;;;23.30;94.60;;;;;;7323673;19;10518;-82
2023/08/13 08:36:03;;;;;;;;;;;23.40;94.10;;;;;;7323235;19;8949;-81
2023/08/13 08:38:32;;;;;;;;;;;23.40;93.50;;;;;;7324793;19;9304;-82
2023/08/13 08:41:02;;;;;;;;;;;23.30;93.10;;;;;;7322924;19;9176;-82
2023/08/13 08:43:33;;;;;;;;;;;23.10;93.80;;;;;;7323413;19;9161;-83
2023/08/13 08:46:03;;;;;;;;;;;22.90;94.90;;;;;;7325097;19;9219;-82
2023/08/13 08:48:33;;;;;;;;;;;22.80;95.20;;;;;;7324569;19;9473;-82
2023/08/13 08:51:06;;;;;;;;;;;22.70;95.80;;;;;;7324527;19;9317;-82
2023/08/13 08:53:36;;;;;;;;;;;22.70;95.00;;;;;;7324313;19;9189;-83
2023/08/13 08:56:05;;;;;;;;;;;22.50;95.40;;;;;;7323046;19;9513;-82
2023/08/13 08:58:34;;;;;;;;;;;22.40;95.80;;;;;;7322380;19;9174;-83
2023/08/13 09:01:03;;;;;;;;;;;22.50;96.10;;;;;;7324301;19;8945;-83
2023/08/13 09:03:32;;;;;;;;;;;22.40;96.50;;;;;;7324120;19;9677;-83
2023/08/13 09:06:04;;;;;;;;;;;22.30;96.80;;;;;;7323954;19;9179;-83
2023/08/13 09:08:33;;;;;;;;;;;22.30;97.20;;;;;;7324131;19;9204;-83
2023/08/13 09:11:03;;;;;;;;;;;22.30;97.60;;;;;;7324350;19;9250;-83
2023/08/13 09:13:32;;;;;;;;;;;22.20;97.40;;;;;;7324035;19;9226;-83
2023/08/13 09:16:01;;;;;;;;;;;22.20;97.90;;;;;;7322243;19;8944;-82
2023/08/13 09:18:40;;;;;;;;;;;22.30;98.00;;;;;;7323567;19;9236;-82
2023/08/13 09:21:12;;;;;;;;;;;22.20;98.40;;;;;;7324139;19;9223;-82
2023/08/13 09:23:42;;;;;;;;;;;22.30;98.70;;;;;;7327058;19;10679;-83
2023/08/13 09:26:10;;;;;;;;;;;22.30;98.60;;;;;;7323459;19;9113;-83
2023/08/13 09:28:45;;;;;;;;;;;22.40;97.40;;;;;;7323833;19;9272;-82
2023/08/13 09:31:14;;;;;;;;;;;22.40;97.40;;;;;;7323273;19;9215;-83
2023/08/13 09:33:47;;;;;;;;;;;22.30;97.50;;;;;;7323380;19;9180;-83
2023/08/13 09:36:19;;;;;;;;;;;22.30;97.80;;;;;;7321596;19;9295;-83
2023/08/13 09:38:48;;;;;;;;;;;22.30;97.70;;;;;;7323010;19;9288;-83
2023/08/13 09:41:19;;;;;;;;;;;22.30;97.80;;;;;;7322920;19;9288;-82
2023/08/13 09:43:50;;;;;;;;;;;22.40;97.50;;;;;;7321188;19;9509;-82
2023/08/13 09:46:23;;;;;;;;;;;22.40;97.20;;;;;;7322996;19;9240;-83
2023/08/13 09:48:57;;;;;;;;;;;22.40;96.80;;;;;;7322809;19;9217;-83
2023/08/13 09:51:34;;;;;;;;;;;22.60;96.70;;;;;;7322639;19;8992;-83
2023/08/13 09:54:17;;;;;;;;;;;22.70;96.40;;;;;;7322737;19;9288;-83
2023/08/13 09:56:56;;;;;;;;;;;22.90;95.50;;;;;;7322823;19;9491;-83
2023/08/13 09:59:26;;;;;;;;;;;22.90;94.90;;;;;;7322581;19;9281;-82
2023/08/13 10:01:56;;;;;;;;;;;22.90;94.30;;;;;;7322524;19;10252;-83
2023/08/13 10:04:26;;;;;;;;;;;22.80;94.60;;;;;;7322365;19;9466;-83
2023/08/13 10:06:58;;;;;;;;;;;22.80;94.60;;;;;;7322094;19;9173;-83
2023/08/13 10:09:28;;;;;;;;;;;22.80;94.70;;;;;;7326664;19;9481;-82
2023/08/13 10:11:58;;;;;;;;;;;22.90;94.60;;;;;;7329845;19;9226;-83
2023/08/13 10:14:27;;;;;;;;;;;23.10;94.10;;;;;;7329324;19;9243;-83
2023/08/13 10:16:57;;;;;;;;;;;23.10;93.90;;;;;;7329690;19;9193;-83
2023/08/13 10:19:31;;;;;;;;;;;23.10;94.20;;;;;;7329630;19;9114;-83
2023/08/13 10:22:03;;;;;;;;;;;23.00;94.20;;;;;;7329815;19;9524;-83
2023/08/13 10:24:33;;;;;;;;;;;23.10;93.90;;;;;;7330288;19;9177;-83
2023/08/13 10:27:02;;;;;;;;;;;23.20;93.30;;;;;;7331783;19;9120;-83
2023/08/13 10:29:39;;;;;;;;;;;23.30;93.40;;;;;;7330649;19;9459;-83
2023/08/13 10:32:15;;;;;;;;;;;23.40;92.70;;;;;;7329653;19;9225;-83
2023/08/13 10:34:47;;;;;;;;;;;23.50;92.50;;;;;;7328598;19;9554;-83
2023/08/13 10:37:22;;;;;;;;;;;23.60;91.90;;;;;;7328960;19;9173;-83
2023/08/13 10:40:08;;;;;;;;;;;23.50;91.80;;;;;;7326284;19;9209;-83
2023/08/13 10:42:51;;;;;;;;;;;23.30;92.20;;;;;;7327312;19;9201;-83
2023/08/13 10:45:22;;;;;;;;;;;23.20;92.30;;;;;;7328682;19;9188;-83
2023/08/13 10:47:54;;;;;;;;;;;23.10;93.10;;;;;;7328701;19;9477;-83
2023/08/13 10:50:41;;;;;;;;;;;23.10;93.20;;;;;;7328468;19;9210;-83
2023/08/13 10:53:15;;;;;;;;;;;23.10;93.10;;;;;;7328746;19;9000;-83
2023/08/13 10:55:48;;;;;;;;;;;22.90;93.20;;;;;;7326940;19;10332;-83
2023/08/13 10:58:28;;;;;;;;;;;22.80;93.70;;;;;;7328566;19;9197;-83
2023/08/13 11:01:01;;;;;;;;;;;22.70;94.30;;;;;;7328348;19;9364;-83
2023/08/13 11:03:32;;;;;;;;;;;22.70;95.10;;;;;;7328443;19;9198;-83
2023/08/13 11:06:04;;;;;;;;;;;22.80;95.00;;;;;;7328297;19;9161;-83
2023/08/13 11:08:40;;;;;;;;;;;22.80;94.50;;;;;;7328368;19;9533;-83
2023/08/13 11:11:09;;;;;;;;;;;23.10;94.20;;;;;;7326669;19;9113;-83
2023/08/13 11:13:39;;;;;;;;;;;23.30;93.00;;;;;;7328055;19;9262;-83
2023/08/13 11:16:08;;;;;;;;;;;23.20;92.90;;;;;;7326294;19;10197;-83
2023/08/13 11:18:37;;;;;;;;;;;23.20;93.00;;;;;;7328026;19;11185;-82
2023/08/13 11:21:08;;;;;;;;;;;23.30;93.00;;;;;;7326538;19;11271;-83
2023/08/13 11:23:39;;;;;;;;;;;23.50;92.00;;;;;;7330886;19;9642;-82
2023/08/13 11:26:08;;;;;;;;;;;23.50;91.40;;;;;;7327786;19;9308;-83
2023/08/13 11:28:37;;;;;;;;;;;23.30;91.70;;;;;;7327562;19;9429;-83
2023/08/13 11:31:06;;;;;;;;;;;23.20;91.90;;;;;;7327302;19;9172;-83
2023/08/13 11:33:35;;;;;;;;;;;23.10;92.20;;;;;;7327335;19;9240;-83
2023/08/13 11:36:05;;;;;;;;;;;23.00;92.70;;;;;;7325857;19;8944;-83
2023/08/13 11:38:34;;;;;;;;;;;22.90;93.10;;;;;;7327274;19;9185;-83
2023/08/13 11:41:15;;;;;;;;;;;22.90;93.50;;;;;;7324860;19;9188;-82
2023/08/13 11:43:45;;;;;;;;;;;23.00;93.50;;;;;;7324883;19;9221;-82
2023/08/13 11:46:14;;;;;;;;;;;23.00;93.20;;;;;;7326882;19;9512;-83
2023/08/13 11:48:43;;;;;;;;;;;23.00;93.30;;;;;;7326425;19;9207;-83
2023/08/13 11:51:22;;;;;;;;;;;23.00;93.80;;;;;;7326272;19;11427;-82
2023/08/13 11:53:52;;;;;;;;;;;23.10;94.10;;;;;;7326723;19;9007;-83
2023/08/13 11:56:23;;;;;;;;;;;23.20;94.00;;;;;;7325056;19;10334;-83
2023/08/13 11:58:53;;;;;;;;;;;23.30;93.60;;;;;;7326218;19;9173;-83
2023/08/13 12:01:26;;;;;;;;;;;23.30;93.10;;;;;;7326274;19;9193;-82
2023/08/13 12:03:55;;;;;;;;;;;23.30;92.70;;;;;;7326380;19;9319;-83
2023/08/13 12:06:24;;;;;;;;;;;23.30;93.00;;;;;;7325967;19;9195;-82
2023/08/13 12:08:55;;;;;;;;;;;23.30;93.00;;;;;;7325972;19;9603;-82
2023/08/13 12:11:27;;;;;;;;;;;23.30;93.30;;;;;;7325747;19;9177;-82
2023/08/13 12:13:56;;;;;;;;;;;23.30;93.30;;;;;;7325870;19;9108;-82
2023/08/13 12:16:25;;;;;;;;;;;23.30;93.20;;;;;;7324483;19;9241;-82
2023/08/13 12:18:54;;;;;;;;;;;23.50;92.90;;;;;;7325659;19;9487;-83
2023/08/13 12:21:23;;;;;;;;;;;23.50;92.80;;;;;;7325535;19;9216;-82
2023/08/13 12:23:52;;;;;;;;;;;23.40;92.40;;;;;;7329927;19;9256;-83
2023/08/13 12:26:21;;;;;;;;;;;23.40;92.70;;;;;;7325915;19;9343;-82
2023/08/13 12:28:53;;;;;;;;;;;23.30;92.80;;;;;;7325955;19;10778;-82
2023/08/13 12:31:25;;;;;;;;;;;23.30;92.60;;;;;;7325964;19;9457;-82
2023/08/13 12:33:54;;;;;;;;;;;23.20;92.90;;;;;;7327096;19;9212;-83
2023/08/13 12:36:23;;;;;;;;;;;23.20;93.20;;;;;;7326474;19;9269;-82
2023/08/13 12:38:53;;;;;;;;;;;23.20;93.20;;;;;;7325756;19;9214;-83
2023/08/13 12:41:22;;;;;;;;;;;23.20;93.10;;;;;;7325153;19;9300;-83
2023/08/13 12:43:54;;;;;;;;;;;23.20;93.30;;;;;;7323115;19;9224;-82
2023/08/13 12:46:23;;;;;;;;;;;23.20;93.50;;;;;;7324892;19;9527;-83
2023/08/13 12:48:52;;;;;;;;;;;23.20;93.20;;;;;;7324657;19;9177;-83
2023/08/13 12:51:21;;;;;;;;;;;23.30;93.10;;;;;;7324464;19;9203;-82
2023/08/13 12:53:50;;;;;;;;;;;23.30;93.00;;;;;;7324448;19;9153;-82
2023/08/13 12:56:19;;;;;;;;;;;23.30;93.10;;;;;;7323730;19;9108;-82
2023/08/13 12:58:48;;;;;;;;;;;23.30;93.10;;;;;;7324725;19;9165;-82
2023/08/13 13:01:19;;;;;;;;;;;23.30;93.20;;;;;;7324080;19;9172;-82
2023/08/13 13:03:48;;;;;;;;;;;23.30;93.00;;;;;;7324460;19;9401;-83
2023/08/13 13:06:17;;;;;;;;;;;23.20;93.10;;;;;;7323976;19;9208;-83
2023/08/13 13:08:46;;;;;;;;;;;23.30;93.00;;;;;;7324041;19;9266;-82
2023/08/13 13:11:19;;;;;;;;;;;23.20;93.20;;;;;;7323698;19;9193;-82
2023/08/13 13:13:48;;;;;;;;;;;23.20;93.40;;;;;;7324067;19;9488;-82
2023/08/13 13:16:19;;;;;;;;;;;23.10;93.80;;;;;;7323055;19;9677;-82
2023/08/13 13:18:48;;;;;;;;;;;23.00;94.00;;;;;;7323737;19;9128;-83
2023/08/13 13:21:17;;;;;;;;;;;22.90;94.30;;;;;;7323592;19;9252;-83
2023/08/13 13:23:46;;;;;;;;;;;22.90;94.50;;;;;;7328354;19;9095;-83
2023/08/13 13:26:15;;;;;;;;;;;22.80;94.90;;;;;;7323514;19;11179;-83
2023/08/13 13:28:44;;;;;;;;;;;22.80;95.40;;;;;;7323324;19;9445;-82
2023/08/13 13:31:13;;;;;;;;;;;22.80;95.10;;;;;;7323534;19;9283;-82
2023/08/13 13:33:45;;;;;;;;;;;22.80;95.30;;;;;;7323415;19;9445;-82
2023/08/13 13:36:14;;;;;;;;;;;22.90;95.40;;;;;;7322606;19;9193;-83
2023/08/13 13:38:43;;;;;;;;;;;23.00;95.00;;;;;;7323105;19;9099;-83
2023/08/13 13:41:13;;;;;;;;;;;23.10;94.80;;;;;;7320892;19;9269;-83
2023/08/13 13:43:42;;;;;;;;;;;23.20;94.10;;;;;;7320077;19;9184;-83
2023/08/13 13:46:11;;;;;;;;;;;23.30;93.60;;;;;;7322782;19;9522;-83
2023/08/13 13:48:40;;;;;;;;;;;23.40;93.60;;;;;;7322779;19;9193;-82
2023/08/13 13:51:11;;;;;;;;;;;23.40;93.70;;;;;;7323044;19;9248;-82
2023/08/13 13:53:40;;;;;;;;;;;23.50;93.40;;;;;;7322615;19;9201;-82
2023/08/13 13:56:09;;;;;;;;;;;23.50;93.20;;;;;;7322179;19;9270;-82
2023/08/13 13:58:38;;;;;;;;;;;23.50;93.00;;;;;;7322526;19;9608;-83
2023/08/13 14:01:07;;;;;;;;;;;23.50;93.10;;;;;;7322570;19;9185;-82
2023/08/13 14:03:36;;;;;;;;;;;23.50;92.60;;;;;;7322412;19;9292;-82
2023/08/13 14:06:05;;;;;;;;;;;23.50;92.70;;;;;;7322274;19;9229;-83
2023/08/13 14:08:37;;;;;;;;;;;23.50;92.70;;;;;;7322309;19;9215;-82
2023/08/13 14:11:06;;;;;;;;;;;23.50;92.70;;;;;;7322178;19;9189;-82
2023/08/13 14:13:35;;;;;;;;;;;23.50;92.70;;;;;;7321979;19;10156;-83
2023/08/13 14:16:04;;;;;;;;;;;23.50;92.70;;;;;;7321796;19;9176;-82
2023/08/13 14:18:33;;;;;;;;;;;23.50;92.90;;;;;;7321989;19;9242;-83
2023/08/13 14:21:02;;;;;;;;;;;23.50;92.90;;;;;;7321941;19;9193;-83
2023/08/13 14:23:31;;;;;;;;;;;23.50;92.90;;;;;;7326691;19;10172;-83
2023/08/13 14:26:03;;;;;;;;;;;23.50;93.10;;;;;;7321902;19;9470;-82
2023/08/13 14:28:32;;;;;;;;;;;23.60;92.80;;;;;;7322041;19;9305;-83
2023/08/13 14:31:01;;;;;;;;;;;23.60;93.00;;;;;;7321809;19;9201;-82
2023/08/13 14:33:29;;;;;;;;;;;23.60;92.90;;;;;;7321861;19;9458;-82
2023/08/13 14:35:59;;;;;;;;;;;23.50;92.80;;;;;;7321931;19;9284;-83
2023/08/13 14:38:28;;;;;;;;;;;23.50;93.10;;;;;;7321875;19;9242;-82
2023/08/13 14:40:57;;;;;;;;;;;23.40;93.30;;;;;;7320634;19;9185;-83
2023/08/13 14:43:30;;;;;;;;;;;23.30;93.70;;;;;;7322229;19;10321;-83
2023/08/13 14:45:59;;;;;;;;;;;23.30;93.80;;;;;;7322473;19;9184;-83